Time;durP1;ratioP1;P1;durP2;ratioP2;P2;SDS_P1;SDS_P2;PMS_P1;PMS_P2;Temp;Humidity;BMP_temperature;BMP_pressure;BME280_temperature;BME280_humidity;BME280_pressure;Samples;Min_cycle;Max_cycle;Signal;HPM_P1;HPM_P2
2022/12/29 00:02:05;;;;;;;0.00;0.00;;;10.00;93.60;;;;;;4993232;28;20057;-70
2022/12/29 00:04:30;;;;;;;0.10;0.10;;;9.90;93.70;;;;;;4958419;28;20057;-69
2022/12/29 00:06:56;;;;;;;0.00;0.00;;;10.00;93.70;;;;;;4992158;28;20061;-69
2022/12/29 00:09:22;;;;;;;0.00;0.00;;;9.90;93.70;;;;;;4991545;28;20065;-69
2022/12/29 00:11:49;;;;;;;0.00;0.00;;;10.00;93.70;;;;;;4974331;28;20046;-72
2022/12/29 00:16:59;;;;;;;0.00;0.00;;;9.90;93.80;;;;;;4994019;28;20050;-68
2022/12/29 00:36:36;;;;;;;0.30;0.30;;;9.70;93.70;;;;;;4969382;28;20137;-68
2022/12/29 00:44:36;;;;;;;0.00;0.00;;;9.60;93.70;;;;;;4985470;28;20503;-71
2022/12/29 00:47:04;;;;;;;0.00;0.00;;;9.70;93.70;;;;;;4984235;28;20054;-72
2022/12/29 00:49:29;;;;;;;0.00;0.00;;;9.70;93.70;;;;;;4969009;28;20046;-71
2022/12/29 00:51:57;;;;;;;0.00;0.00;;;9.70;93.70;;;;;;4986306;28;20069;-72
2022/12/29 00:54:23;;;;;;;0.00;0.00;;;9.80;93.60;;;;;;4971625;28;20043;-72
2022/12/29 00:56:51;;;;;;;0.00;0.00;;;9.80;93.60;;;;;;4987239;28;20046;-71
2022/12/29 00:59:17;;;;;;;0.00;0.00;;;9.70;93.60;;;;;;4988810;28;20076;-71
2022/12/29 01:01:43;;;;;;;0.00;0.00;;;9.80;93.40;;;;;;4988713;28;20050;-72
2022/12/29 01:04:10;;;;;;;0.00;0.00;;;9.70;93.40;;;;;;4972597;28;20042;-72
2022/12/29 01:06:37;;;;;;;0.00;0.00;;;9.70;93.50;;;;;;4990593;28;20038;-72
2022/12/29 01:11:48;;;;;;;0.00;0.00;;;9.80;93.50;;;;;;4985728;28;20046;-72
2022/12/29 01:14:14;;;;;;;0.00;0.00;;;9.80;93.50;;;;;;4989412;28;20072;-71
2022/12/29 01:16:40;;;;;;;0.00;0.00;;;9.80;93.60;;;;;;4972892;28;20050;-71
2022/12/29 01:19:06;;;;;;;0.00;0.00;;;9.80;93.50;;;;;;4988722;28;20049;-71
2022/12/29 01:21:32;;;;;;;0.00;0.00;;;9.80;93.60;;;;;;4990055;28;20039;-72
2022/12/29 01:23:58;;;;;;;0.00;0.00;;;9.80;93.70;;;;;;4990248;28;20380;-72
2022/12/29 01:26:24;;;;;;;0.00;0.00;;;9.90;93.50;;;;;;4990337;28;20057;-72
2022/12/29 01:28:49;;;;;;;0.00;0.00;;;9.90;93.50;;;;;;4990004;28;20121;-72
2022/12/29 01:31:16;;;;;;;0.00;0.00;;;9.90;93.50;;;;;;4970934;28;20042;-72
2022/12/29 01:33:42;;;;;;;0.00;0.00;;;9.90;93.50;;;;;;4984548;28;20046;-71
2022/12/29 01:36:11;;;;;;;0.00;0.00;;;9.90;93.60;;;;;;4984920;28;20050;-72
2022/12/29 01:38:38;;;;;;;0.03;0.03;;;9.90;93.60;;;;;;4988323;28;20041;-72
2022/12/29 01:41:05;;;;;;;0.00;0.00;;;9.90;93.60;;;;;;4988337;28;20069;-72
2022/12/29 01:43:50;;;;;;;0.00;0.00;;;9.90;93.70;;;;;;4987175;28;20407;-72
2022/12/29 01:46:23;;;;;;;0.00;0.00;;;9.90;93.70;;;;;;4988430;28;20046;-72
2022/12/29 01:48:55;;;;;;;0.10;0.10;;;9.90;93.70;;;;;;4986013;28;20082;-72
2022/12/29 01:51:22;;;;;;;;;;;9.90;93.80;;;;;;5005182;28;20042;-72
2022/12/29 01:53:48;;;;;;;0.00;0.00;;;9.80;93.90;;;;;;5007552;28;19972;-72
2022/12/29 01:56:18;;;;;;;0.20;0.20;;;9.80;93.90;;;;;;5007738;28;20693;-72
2022/12/29 01:58:48;;;;;;;0.00;0.00;;;9.70;93.90;;;;;;4986954;28;20050;-69
2022/12/29 02:01:15;;;;;;;0.00;0.00;;;9.80;93.90;;;;;;4996869;28;20550;-70
2022/12/29 02:03:41;;;;;;;0.00;0.00;;;9.80;93.90;;;;;;4971157;28;20046;-69
2022/12/29 02:06:12;;;;;;;0.00;0.00;;;9.80;94.00;;;;;;5007395;28;20046;-72
2022/12/29 02:08:39;;;;;;;0.00;0.00;;;9.80;94.00;;;;;;5007738;28;20038;-70
2022/12/29 02:11:06;;;;;;;0.00;0.00;;;9.80;94.00;;;;;;5005938;28;20077;-70
2022/12/29 02:13:32;;;;;;;0.20;0.20;;;9.70;94.00;;;;;;4968038;28;20088;-70
2022/12/29 02:16:16;;;;;;;0.00;0.00;;;9.60;94.00;;;;;;4970856;28;20046;-70
2022/12/29 02:19:06;;;;;;;0.00;0.00;;;9.60;94.10;;;;;;5004811;28;20194;-70
2022/12/29 02:22:09;;;;;;;0.00;0.00;;;9.50;94.10;;;;;;5008787;28;20042;-70
2022/12/29 02:24:59;;;;;;;0.00;0.00;;;9.60;94.10;;;;;;5001786;28;20468;-70
2022/12/29 02:27:48;;;;;;;0.00;0.00;;;9.60;94.20;;;;;;5003681;28;20080;-70
2022/12/29 02:30:45;;;;;;;0.00;0.00;;;9.70;94.30;;;;;;5006481;28;20112;-70
2022/12/29 02:33:22;;;;;;;0.00;0.00;;;9.70;94.10;;;;;;4973462;28;20074;-70
2022/12/29 02:35:57;;;;;;;0.03;0.03;;;9.60;94.10;;;;;;4968969;28;20132;-70
2022/12/29 02:38:51;;;;;;;0.00;0.00;;;9.60;94.20;;;;;;5007213;28;20081;-69
2022/12/29 02:41:21;;;;;;;0.00;0.00;;;9.40;94.10;;;;;;4987310;28;20050;-69
2022/12/29 02:44:08;;;;;;;0.00;0.00;;;9.40;94.20;;;;;;5005371;28;20050;-70
2022/12/29 02:46:59;;;;;;;0.00;0.00;;;9.50;94.10;;;;;;5001073;28;20419;-70
2022/12/29 02:49:33;;;;;;;0.00;0.00;;;9.40;94.20;;;;;;5004455;28;20125;-69
2022/12/29 02:52:11;;;;;;;0.00;0.00;;;9.50;94.20;;;;;;5005028;28;20054;-70
2022/12/29 02:54:43;;;;;;;0.00;0.00;;;9.50;94.20;;;;;;5004730;28;20049;-70
2022/12/29 02:57:21;;;;;;;0.10;0.10;;;9.50;94.20;;;;;;5006888;28;20494;-70
2022/12/29 02:59:53;;;;;;;0.00;0.00;;;9.50;94.20;;;;;;5006921;28;20702;-70
2022/12/29 03:02:30;;;;;;;0.00;0.00;;;9.40;94.20;;;;;;4990540;28;20521;-70
2022/12/29 03:05:14;;;;;;;0.00;0.00;;;9.40;94.20;;;;;;5007566;28;20046;-69
2022/12/29 03:07:53;;;;;;;0.00;0.00;;;9.40;94.20;;;;;;5008707;28;20129;-70
2022/12/29 03:10:40;;;;;;;0.00;0.00;;;9.40;94.10;;;;;;5007846;28;20552;-70
2022/12/29 03:16:03;;;;;;;0.05;0.05;;;9.30;94.00;;;;;;5006795;28;20065;-70
2022/12/29 03:18:35;;;;;;;0.00;0.00;;;9.30;94.00;;;;;;4974749;28;20528;-70
2022/12/29 03:21:19;;;;;;;0.10;0.10;;;9.20;94.00;;;;;;5007422;28;20073;-70
2022/12/29 03:23:48;;;;;;;0.00;0.00;;;9.10;93.90;;;;;;5007928;28;20041;-70
2022/12/29 03:26:16;;;;;;;0.00;0.00;;;9.10;93.90;;;;;;5008468;28;20034;-70
2022/12/29 03:28:51;;;;;;;0.00;0.00;;;9.10;93.90;;;;;;4999566;28;20046;-70
2022/12/29 03:31:18;;;;;;;0.10;0.10;;;9.10;93.90;;;;;;5007015;28;20046;-69
2022/12/29 03:33:46;;;;;;;0.00;0.00;;;9.00;93.80;;;;;;5007331;28;20048;-69
2022/12/29 03:36:20;;;;;;;0.00;0.00;;;9.00;93.80;;;;;;5006508;28;20140;-69
2022/12/29 03:39:06;;;;;;;0.00;0.00;;;9.00;93.70;;;;;;5006858;28;20066;-69
2022/12/29 03:41:33;;;;;;;0.00;0.00;;;8.90;93.60;;;;;;4991166;28;20083;-69
2022/12/29 03:43:58;;;;;;;0.00;0.00;;;8.90;93.40;;;;;;5007901;28;20464;-69
2022/12/29 03:46:24;;;;;;;0.00;0.00;;;8.80;93.50;;;;;;4990569;28;20042;-70
2022/12/29 03:48:50;;;;;;;0.00;0.00;;;8.80;93.50;;;;;;4988805;28;20039;-69
2022/12/29 03:51:15;;;;;;;0.20;0.20;;;8.80;93.50;;;;;;4971660;28;20045;-69
2022/12/29 03:53:41;;;;;;;0.00;0.00;;;8.80;93.40;;;;;;4990466;28;20153;-70
2022/12/29 03:56:07;;;;;;;0.00;0.00;;;8.60;93.30;;;;;;4989847;28;20050;-70
2022/12/29 03:58:32;;;;;;;0.00;0.00;;;8.60;93.20;;;;;;4972648;28;20031;-70
2022/12/29 04:00:58;;;;;;;0.00;0.00;;;8.60;93.30;;;;;;4952078;28;20133;-69
2022/12/29 04:03:23;;;;;;;0.00;0.00;;;8.60;93.10;;;;;;4989942;28;20030;-69
2022/12/29 04:05:49;;;;;;;0.00;0.00;;;8.60;93.20;;;;;;4957517;28;20503;-69
2022/12/29 04:08:15;;;;;;;0.00;0.00;;;8.60;93.00;;;;;;4988357;28;20088;-69
2022/12/29 04:10:40;;;;;;;0.00;0.00;;;8.60;93.10;;;;;;4989463;28;20077;-69
2022/12/29 04:13:06;;;;;;;1.13;1.02;;;8.60;93.00;;;;;;4971212;28;20054;-69
2022/12/29 04:15:31;;;;;;;0.00;0.00;;;8.50;92.90;;;;;;4989829;28;20039;-69
2022/12/29 04:17:57;;;;;;;0.00;0.00;;;8.50;92.90;;;;;;4970784;28;20065;-70
2022/12/29 04:23:07;;;;;;;0.00;0.00;;;8.50;92.90;;;;;;4989124;28;20050;-70
2022/12/29 04:25:33;;;;;;;0.00;0.00;;;8.60;92.80;;;;;;4989234;28;20045;-69
2022/12/29 04:27:59;;;;;;;0.00;0.00;;;8.50;92.70;;;;;;4973107;28;20077;-69
2022/12/29 04:30:25;;;;;;;0.00;0.00;;;8.50;92.60;;;;;;4990134;28;20065;-69
2022/12/29 04:32:51;;;;;;;0.00;0.00;;;8.50;92.50;;;;;;4988920;28;20042;-69
2022/12/29 04:35:16;;;;;;;0.00;0.00;;;8.60;92.30;;;;;;4956095;28;20053;-70
2022/12/29 04:37:42;;;;;;;0.00;0.00;;;8.60;92.10;;;;;;4988345;28;20074;-70
2022/12/29 04:40:08;;;;;;;0.00;0.00;;;8.60;92.00;;;;;;4988708;28;20047;-70
2022/12/29 04:42:34;;;;;;;0.00;0.00;;;8.70;91.80;;;;;;4989393;28;20038;-69
2022/12/29 04:44:59;;;;;;;0.63;0.63;;;8.80;91.60;;;;;;4995774;28;20085;-70
2022/12/29 04:47:25;;;;;;;0.00;0.00;;;8.80;91.50;;;;;;4989821;28;20076;-69
2022/12/29 04:49:51;;;;;;;1.65;1.55;;;8.90;91.30;;;;;;4991365;28;20042;-70
2022/12/29 04:52:16;;;;;;;0.43;0.43;;;8.90;90.90;;;;;;4977850;28;20487;-70
2022/12/29 04:54:42;;;;;;;0.25;0.25;;;8.90;91.10;;;;;;5005166;28;20038;-70
2022/12/29 04:57:07;;;;;;;0.00;0.00;;;8.80;91.00;;;;;;4999551;28;20165;-70
2022/12/29 04:59:33;;;;;;;0.00;0.00;;;8.80;91.00;;;;;;4993670;28;20089;-69
2022/12/29 05:01:59;;;;;;;0.00;0.00;;;8.80;91.00;;;;;;4988881;28;20077;-70
2022/12/29 05:04:24;;;;;;;0.00;0.00;;;8.70;91.00;;;;;;5004174;28;20052;-70
2022/12/29 05:06:50;;;;;;;0.00;0.00;;;8.60;91.00;;;;;;5007078;28;21971;-69
2022/12/29 05:09:15;;;;;;;0.17;0.17;;;8.60;90.80;;;;;;4972517;28;20038;-69
2022/12/29 05:11:41;;;;;;;0.00;0.00;;;8.60;91.10;;;;;;4973413;28;20133;-69
2022/12/29 05:14:07;;;;;;;0.00;0.00;;;8.60;91.10;;;;;;5000881;28;20042;-69
2022/12/29 05:16:32;;;;;;;2.38;1.55;;;8.50;91.20;;;;;;4992288;28;20038;-69
2022/12/29 05:18:58;;;;;;;0.00;0.00;;;8.50;91.20;;;;;;4990308;28;20046;-69
2022/12/29 05:21:24;;;;;;;0.00;0.00;;;8.50;91.30;;;;;;5000754;28;20078;-70
2022/12/29 05:23:49;;;;;;;0.00;0.00;;;8.50;91.40;;;;;;4990204;28;20078;-70
2022/12/29 05:26:15;;;;;;;0.00;0.00;;;8.50;91.40;;;;;;4990567;28;20042;-70
2022/12/29 05:28:40;;;;;;;0.00;0.00;;;8.60;91.50;;;;;;4990168;28;20042;-70
2022/12/29 05:31:06;;;;;;;0.00;0.00;;;8.60;91.50;;;;;;4990553;28;20051;-70
2022/12/29 05:33:31;;;;;;;0.08;0.08;;;8.60;91.60;;;;;;4971322;28;20412;-70
2022/12/29 05:36:03;;;;;;;0.00;0.00;;;8.50;91.60;;;;;;4955458;28;20050;-70
2022/12/29 05:38:28;;;;;;;0.00;0.00;;;8.60;91.60;;;;;;4980420;28;20047;-70
2022/12/29 05:40:54;;;;;;;0.00;0.00;;;8.60;91.50;;;;;;4983425;28;20038;-70
2022/12/29 05:43:19;;;;;;;0.00;0.00;;;8.60;91.50;;;;;;4974640;28;20132;-69
2022/12/29 05:45:48;;;;;;;0.00;0.00;;;8.70;91.30;;;;;;4972785;28;20097;-70
2022/12/29 05:48:14;;;;;;;0.00;0.00;;;8.70;91.40;;;;;;4993676;28;20054;-70
2022/12/29 05:50:39;;;;;;;0.00;0.00;;;8.80;91.50;;;;;;4988281;28;20061;-69
2022/12/29 05:53:05;;;;;;;0.00;0.00;;;8.80;91.40;;;;;;4987047;28;20121;-69
2022/12/29 05:55:30;;;;;;;0.00;0.00;;;8.80;91.00;;;;;;4971629;28;20447;-70
2022/12/29 05:57:56;;;;;;;0.17;0.17;;;8.80;90.90;;;;;;4988901;28;20463;-70
2022/12/29 06:00:22;;;;;;;0.10;0.10;;;8.80;90.90;;;;;;4987721;28;20052;-70
2022/12/29 06:02:47;;;;;;;0.00;0.00;;;8.80;90.70;;;;;;4994836;28;20092;-70
2022/12/29 06:05:13;;;;;;;0.00;0.00;;;8.70;90.50;;;;;;4987108;28;20085;-70
2022/12/29 06:07:39;;;;;;;0.00;0.00;;;8.70;90.60;;;;;;4989328;28;20121;-70
2022/12/29 06:10:05;;;;;;;0.00;0.00;;;8.60;90.40;;;;;;4987939;28;20079;-70
2022/12/29 06:12:31;;;;;;;0.00;0.00;;;8.60;90.40;;;;;;4987569;28;20077;-70
2022/12/29 06:14:56;;;;;;;0.00;0.00;;;8.60;90.40;;;;;;5001631;28;20046;-70
2022/12/29 06:17:22;;;;;;;0.00;0.00;;;8.60;90.30;;;;;;4992205;28;20053;-70
2022/12/29 06:19:48;;;;;;;0.00;0.00;;;8.60;90.40;;;;;;4987607;28;20030;-70
2022/12/29 06:22:13;;;;;;;1.70;1.60;;;8.60;90.30;;;;;;4985067;28;20050;-71
2022/12/29 06:24:39;;;;;;;0.00;0.00;;;8.60;90.30;;;;;;4985498;28;20475;-71
2022/12/29 06:27:05;;;;;;;0.32;0.32;;;8.70;90.20;;;;;;4974275;28;20046;-71
2022/12/29 06:29:31;;;;;;;0.10;0.10;;;8.80;89.90;;;;;;4991700;28;20775;-71
2022/12/29 06:31:58;;;;;;;0.00;0.00;;;8.70;90.10;;;;;;4985678;28;20089;-71
2022/12/29 06:34:26;;;;;;;0.03;0.03;;;8.70;90.10;;;;;;4985745;28;20129;-71
2022/12/29 06:36:52;;;;;;;0.00;0.00;;;8.70;90.00;;;;;;4969111;28;20153;-71
2022/12/29 06:39:17;;;;;;;1.13;1.02;;;8.90;89.90;;;;;;4965690;28;20118;-68
2022/12/29 06:41:43;;;;;;;0.00;0.00;;;8.90;89.70;;;;;;4986436;28;20069;-70
2022/12/29 06:44:08;;;;;;;0.00;0.00;;;8.80;89.60;;;;;;4989275;28;20038;-69
2022/12/29 06:46:34;;;;;;;0.40;0.40;;;8.90;89.40;;;;;;4969281;28;20047;-70
2022/12/29 06:49:00;;;;;;;0.00;0.00;;;8.80;89.30;;;;;;4986902;28;20117;-69
2022/12/29 06:51:25;;;;;;;2.60;2.40;;;8.80;89.40;;;;;;4983379;28;20046;-69
2022/12/29 06:53:51;;;;;;;0.00;0.00;;;8.90;89.30;;;;;;4969833;28;20069;-68
2022/12/29 06:56:17;;;;;;;0.00;0.00;;;8.90;89.40;;;;;;4986202;28;20085;-68
2022/12/29 06:58:42;;;;;;;0.00;0.00;;;8.90;89.30;;;;;;4987331;28;20063;-69
2022/12/29 07:01:08;;;;;;;0.00;0.00;;;8.90;89.10;;;;;;4987530;28;20050;-69
2022/12/29 07:03:33;;;;;;;0.00;0.00;;;8.90;88.90;;;;;;4988612;28;20112;-68
2022/12/29 07:05:59;;;;;;;0.00;0.00;;;9.00;88.80;;;;;;4971546;28;20058;-68
2022/12/29 07:08:24;;;;;;;0.00;0.00;;;9.00;88.40;;;;;;4988384;28;20137;-68
2022/12/29 07:10:50;;;;;;;0.00;0.00;;;9.00;88.10;;;;;;4987685;28;20082;-67
2022/12/29 07:13:16;;;;;;;0.00;0.00;;;9.00;88.10;;;;;;4988671;28;20313;-68
2022/12/29 07:15:41;;;;;;;0.00;0.00;;;9.10;88.10;;;;;;4988363;28;20042;-69
2022/12/29 07:18:07;;;;;;;0.00;0.00;;;9.10;87.70;;;;;;4998534;28;20133;-69
2022/12/29 07:20:33;;;;;;;0.00;0.00;;;9.20;87.80;;;;;;4991958;28;20117;-68
2022/12/29 07:22:58;;;;;;;0.43;0.43;;;9.20;87.70;;;;;;4993210;28;20057;-68
2022/12/29 07:25:24;;;;;;;0.10;0.10;;;9.30;87.70;;;;;;4995663;28;20065;-68
2022/12/29 07:27:50;;;;;;;0.00;0.00;;;9.30;87.70;;;;;;4991147;28;20072;-68
2022/12/29 07:30:16;;;;;;;0.00;0.00;;;9.30;87.40;;;;;;4974273;28;20042;-69
2022/12/29 07:32:41;;;;;;;0.00;0.00;;;9.40;87.60;;;;;;4989101;28;20097;-69
2022/12/29 07:35:07;;;;;;;0.63;0.63;;;9.30;87.40;;;;;;5004359;28;20058;-69
2022/12/29 07:37:34;;;;;;;1.08;0.50;;;9.20;87.30;;;;;;4990517;28;20146;-70
2022/12/29 07:40:00;;;;;;;0.00;0.00;;;9.20;87.40;;;;;;4991300;28;20089;-70
2022/12/29 07:42:26;;;;;;;0.00;0.00;;;9.10;87.50;;;;;;4985407;28;20089;-69
2022/12/29 07:44:52;;;;;;;0.00;0.00;;;9.00;87.60;;;;;;4967477;28;20065;-70
2022/12/29 07:47:18;;;;;;;0.10;0.10;;;8.90;87.90;;;;;;4990580;28;20058;-70
2022/12/29 07:49:43;;;;;;;0.00;0.00;;;8.90;88.10;;;;;;5009494;28;20387;-70
2022/12/29 07:52:09;;;;;;;0.25;0.25;;;8.90;88.40;;;;;;4991341;28;20096;-71
2022/12/29 07:54:34;;;;;;;0.00;0.00;;;8.80;88.50;;;;;;5006130;28;20077;-69
2022/12/29 07:57:00;;;;;;;0.00;0.00;;;8.80;88.60;;;;;;4974159;28;20054;-71
2022/12/29 07:59:26;;;;;;;0.00;0.00;;;8.70;88.70;;;;;;4986914;28;20131;-70
2022/12/29 08:01:52;;;;;;;0.00;0.00;;;8.80;88.90;;;;;;5004796;28;20045;-70
2022/12/29 08:04:18;;;;;;;0.00;0.00;;;8.80;88.60;;;;;;4991808;28;20100;-70
2022/12/29 08:06:45;;;;;;;0.00;0.00;;;8.70;88.50;;;;;;5007259;28;20042;-70
2022/12/29 08:09:11;;;;;;;0.00;0.00;;;8.80;88.60;;;;;;4987948;28;20062;-70
2022/12/29 08:11:37;;;;;;;0.43;0.43;;;8.70;88.60;;;;;;5006944;28;20787;-70
2022/12/29 08:14:03;;;;;;;0.00;0.00;;;8.70;88.60;;;;;;5009685;28;20046;-70
2022/12/29 08:16:29;;;;;;;0.00;0.00;;;8.80;88.60;;;;;;5010428;28;20038;-70
2022/12/29 08:18:55;;;;;;;0.50;0.50;;;8.80;88.70;;;;;;5010784;28;20050;-73
2022/12/29 08:21:20;;;;;;;0.00;0.00;;;8.80;88.40;;;;;;4975541;28;20042;-71
2022/12/29 08:23:47;;;;;;;0.55;0.55;;;8.80;88.40;;;;;;5010710;28;20038;-71
2022/12/29 08:26:13;;;;;;;4.65;1.75;;;8.80;88.40;;;;;;5011284;28;20042;-71
2022/12/29 08:28:39;;;;;;;0.25;0.25;;;8.80;88.40;;;;;;5005588;28;20445;-71
2022/12/29 08:31:04;;;;;;;0.00;0.00;;;8.70;88.00;;;;;;5010426;28;20045;-70
2022/12/29 08:33:30;;;;;;;0.00;0.00;;;8.70;88.00;;;;;;5007530;28;20049;-70
2022/12/29 08:36:01;;;;;;;0.80;0.80;;;8.80;88.00;;;;;;5009142;28;20046;-70
2022/12/29 08:38:28;;;;;;;0.00;0.00;;;8.80;88.10;;;;;;4987189;28;20498;-69
2022/12/29 08:40:54;;;;;;;0.05;0.05;;;8.80;88.10;;;;;;4995857;28;20057;-70
2022/12/29 08:43:20;;;;;;;1.33;1.23;;;8.70;88.20;;;;;;5007506;28;20042;-70
2022/12/29 08:45:46;;;;;;;0.00;0.00;;;8.80;88.20;;;;;;4998042;28;20058;-70
2022/12/29 08:48:11;;;;;;;0.65;0.65;;;8.70;88.40;;;;;;4989089;28;20420;-71
2022/12/29 08:50:37;;;;;;;0.00;0.00;;;8.70;88.60;;;;;;4989681;28;20050;-76
2022/12/29 08:53:03;;;;;;;0.00;0.00;;;8.70;88.90;;;;;;4992481;28;20078;-72
2022/12/29 08:55:28;;;;;;;0.00;0.00;;;8.60;89.00;;;;;;4965469;28;20526;-72
2022/12/29 08:57:54;;;;;;;0.30;0.30;;;8.60;89.20;;;;;;4972079;28;20138;-71
2022/12/29 09:00:20;;;;;;;0.00;0.00;;;8.60;89.30;;;;;;4988351;28;20050;-71
2022/12/29 09:02:46;;;;;;;0.00;0.00;;;8.60;89.40;;;;;;4991728;28;20534;-71
2022/12/29 09:05:11;;;;;;;0.00;0.00;;;8.60;89.40;;;;;;4974532;28;20031;-71
2022/12/29 09:07:37;;;;;;;0.00;0.00;;;8.60;89.40;;;;;;4988066;28;20050;-71
2022/12/29 09:10:04;;;;;;;0.00;0.00;;;8.60;89.50;;;;;;4988519;28;20050;-69
2022/12/29 09:12:30;;;;;;;0.08;0.08;;;8.60;89.60;;;;;;4972589;28;20069;-70
2022/12/29 09:14:55;;;;;;;0.13;0.13;;;8.60;89.60;;;;;;4957432;28;20039;-70
2022/12/29 09:20:06;;;;;;;0.00;0.00;;;8.60;89.60;;;;;;4990173;28;20121;-72
2022/12/29 09:22:31;;;;;;;0.00;0.00;;;8.60;89.70;;;;;;4988514;28;20050;-72
2022/12/29 09:24:57;;;;;;;0.47;0.47;;;8.60;89.70;;;;;;4990449;28;20060;-71
2022/12/29 09:27:23;;;;;;;0.00;0.00;;;8.70;89.50;;;;;;4989139;28;20562;-70
2022/12/29 09:29:48;;;;;;;0.43;0.43;;;8.70;89.50;;;;;;4988046;28;20485;-71
2022/12/29 09:32:14;;;;;;;0.00;0.00;;;8.60;89.70;;;;;;4987690;28;20137;-71
2022/12/29 09:34:39;;;;;;;0.00;0.00;;;8.70;89.90;;;;;;4972836;28;20046;-69
2022/12/29 09:37:05;;;;;;;0.00;0.00;;;8.60;90.20;;;;;;4971709;28;20064;-71
2022/12/29 09:39:31;;;;;;;0.00;0.00;;;8.60;90.40;;;;;;4956042;28;20121;-70
2022/12/29 09:41:59;;;;;;;0.32;0.32;;;8.60;90.60;;;;;;4991012;28;20065;-70
2022/12/29 09:44:50;;;;;;;3.33;0.95;;;8.60;91.00;;;;;;4989219;28;20116;-71
2022/12/29 09:47:17;;;;;;;0.00;0.00;;;8.60;91.10;;;;;;4990504;28;20054;-70
2022/12/29 09:49:49;;;;;;;6.60;1.35;;;8.50;91.30;;;;;;5007416;28;20046;-71
2022/12/29 09:52:29;;;;;;;0.00;0.00;;;8.50;91.80;;;;;;5014352;28;20049;-70
2022/12/29 09:55:10;;;;;;;0.00;0.00;;;8.40;91.80;;;;;;5011043;28;20083;-72
2022/12/29 09:57:44;;;;;;;0.00;0.00;;;8.30;92.30;;;;;;4987375;28;20085;-67
2022/12/29 10:00:16;;;;;;;0.00;0.00;;;8.30;92.60;;;;;;5005452;28;20089;-67
2022/12/29 10:03:10;;;;;;;0.00;0.00;;;8.20;92.70;;;;;;4990142;28;20115;-67
2022/12/29 10:05:59;;;;;;;0.00;0.00;;;8.30;93.00;;;;;;5007090;28;20038;-66
2022/12/29 10:08:33;;;;;;;24.73;1.88;;;8.30;92.90;;;;;;5007372;28;20061;-67
2022/12/29 10:11:23;;;;;;;0.00;0.00;;;8.40;93.10;;;;;;5006360;28;20037;-66
2022/12/29 10:13:52;;;;;;;0.00;0.00;;;8.40;93.10;;;;;;5003409;28;20049;-66
2022/12/29 10:16:33;;;;;;;0.00;0.00;;;8.30;93.30;;;;;;4987066;28;20069;-68
2022/12/29 10:19:13;;;;;;;0.00;0.00;;;8.40;93.30;;;;;;5006548;28;20157;-67
2022/12/29 10:22:02;;;;;;;0.35;0.35;;;8.40;93.40;;;;;;5007222;28;20096;-65
2022/12/29 10:24:30;;;;;;;0.00;0.00;;;8.40;93.40;;;;;;5002512;28;20053;-68
2022/12/29 10:26:58;;;;;;;0.00;0.00;;;8.50;93.60;;;;;;5006042;28;20084;-66
2022/12/29 10:29:33;;;;;;;0.35;0.35;;;8.70;93.30;;;;;;5004519;28;20046;-67
2022/12/29 10:32:13;;;;;;;0.57;0.57;;;8.70;93.10;;;;;;5007581;28;20092;-68
2022/12/29 10:34:45;;;;;;;0.00;0.00;;;8.90;93.30;;;;;;5003169;28;20071;-66
2022/12/29 10:37:32;;;;;;;0.00;0.00;;;8.90;93.20;;;;;;5007956;28;20518;-68
2022/12/29 10:39:58;;;;;;;1.98;1.20;;;9.10;92.80;;;;;;5007009;28;20054;-64
2022/12/29 10:42:24;;;;;;;0.20;0.20;;;9.10;92.80;;;;;;5007801;28;20049;-64
2022/12/29 10:44:50;;;;;;;0.00;0.00;;;9.20;92.50;;;;;;4994588;28;20215;-66
2022/12/29 10:47:21;;;;;;;1.13;1.13;;;9.20;92.40;;;;;;5005824;28;20139;-65
2022/12/29 10:49:48;;;;;;;;;;;9.40;91.90;;;;;;5007450;28;20137;-68
2022/12/29 10:52:16;;;;;;;0.00;0.00;;;9.40;91.60;;;;;;4986059;28;20024;-66
2022/12/29 10:54:52;;;;;;;0.00;0.00;;;9.40;91.40;;;;;;4999597;28;20479;-67
2022/12/29 10:57:43;;;;;;;0.00;0.00;;;9.50;90.20;;;;;;5011124;28;20558;-67
2022/12/29 11:00:16;;;;;;;0.65;0.00;;;9.60;89.50;;;;;;5008074;28;20038;-66
2022/12/29 11:02:50;;;;;;;0.00;0.00;;;9.60;89.00;;;;;;4990752;28;20522;-65
2022/12/29 11:05:51;;;;;;;0.00;0.00;;;9.70;88.30;;;;;;5007528;28;20483;-67
2022/12/29 11:08:26;;;;;;;0.00;0.00;;;9.70;88.40;;;;;;5001321;28;20054;-67
2022/12/29 11:11:01;;;;;;;0.00;0.00;;;9.70;87.50;;;;;;5000131;28;20100;-67
2022/12/29 11:13:33;;;;;;;0.00;0.00;;;9.80;87.50;;;;;;4984288;28;20136;-65
2022/12/29 11:16:00;;;;;;;0.10;0.10;;;9.80;87.20;;;;;;4997903;28;20034;-73
2022/12/29 11:18:37;;;;;;;0.45;0.45;;;9.80;86.40;;;;;;5008379;28;20577;-71
2022/12/29 11:21:06;;;;;;;0.00;0.00;;;9.90;86.40;;;;;;4977212;28;20189;-73
2022/12/29 11:23:42;;;;;;;0.82;0.82;;;9.80;86.20;;;;;;5010674;28;20092;-72
2022/12/29 11:26:13;;;;;;;0.00;0.00;;;9.70;86.60;;;;;;5002555;28;20500;-72
2022/12/29 11:28:41;;;;;;;0.00;0.00;;;9.70;86.50;;;;;;4992923;28;20058;-73
2022/12/29 11:31:08;;;;;;;0.00;0.00;;;9.70;86.90;;;;;;5006605;28;20113;-73
2022/12/29 11:33:36;;;;;;;0.10;0.10;;;9.70;87.00;;;;;;4985443;28;20050;-72
2022/12/29 11:36:07;;;;;;;0.20;0.20;;;9.70;87.00;;;;;;5002118;28;20687;-72
2022/12/29 11:38:39;;;;;;;0.00;0.00;;;9.70;86.50;;;;;;5008368;28;20506;-69
2022/12/29 11:41:06;;;;;;;0.35;0.35;;;9.80;86.60;;;;;;4991926;28;20091;-70
2022/12/29 11:43:37;;;;;;;0.00;0.00;;;9.70;86.70;;;;;;4992572;28;20062;-70
2022/12/29 11:46:03;;;;;;;0.00;0.00;;;9.70;86.30;;;;;;4975007;28;20096;-71
2022/12/29 11:48:37;;;;;;;0.05;0.05;;;9.80;86.20;;;;;;5008316;28;20069;-71
2022/12/29 11:51:03;;;;;;;0.00;0.00;;;9.80;86.00;;;;;;5009418;28;20042;-70
2022/12/29 11:53:52;;;;;;;0.00;0.00;;;9.70;85.30;;;;;;5011460;28;20116;-72
2022/12/29 11:56:22;;;;;;;0.32;0.32;;;9.70;85.30;;;;;;5009830;28;20057;-72
2022/12/29 11:58:50;;;;;;;0.15;0.15;;;9.70;85.20;;;;;;5005182;28;20525;-72
2022/12/29 12:01:24;;;;;;;0.00;0.00;;;9.60;85.10;;;;;;5009391;28;20042;-72
2022/12/29 12:04:01;;;;;;;0.00;0.00;;;9.60;85.20;;;;;;5008167;28;20466;-72
2022/12/29 12:06:29;;;;;;;0.00;0.00;;;9.50;85.20;;;;;;5009181;28;20038;-73
2022/12/29 12:09:00;;;;;;;1.95;1.13;;;9.50;85.10;;;;;;5009987;28;20418;-72
2022/12/29 12:11:36;;;;;;;0.00;0.00;;;9.50;85.70;;;;;;4977067;28;20115;-71
2022/12/29 12:14:27;;;;;;;0.00;0.00;;;9.40;86.00;;;;;;4992252;28;20495;-70
2022/12/29 12:16:54;;;;;;;0.00;0.00;;;9.40;86.10;;;;;;4997396;28;20050;-70
2022/12/29 12:19:46;;;;;;;0.00;0.00;;;9.30;86.30;;;;;;5000532;28;20097;-68
2022/12/29 12:22:37;;;;;;;0.10;0.10;;;9.40;86.40;;;;;;5004215;28;20503;-71
2022/12/29 12:25:20;;;;;;;0.00;0.00;;;9.40;86.20;;;;;;5003482;28;20052;-70
2022/12/29 12:27:57;;;;;;;0.00;0.00;;;9.30;85.60;;;;;;5011105;28;20053;-70
2022/12/29 12:30:26;;;;;;;0.00;0.00;;;9.40;85.70;;;;;;5009501;28;20046;-70
2022/12/29 12:33:28;;;;;;;0.00;0.00;;;9.30;85.80;;;;;;5005932;28;20064;-72
2022/12/29 12:36:14;;;;;;;0.10;0.10;;;9.20;86.20;;;;;;4996087;28;20058;-71
2022/12/29 12:38:58;;;;;;;0.08;0.08;;;9.30;86.40;;;;;;4989433;28;20107;-70
2022/12/29 12:41:50;;;;;;;0.00;0.00;;;9.30;86.40;;;;;;5006204;28;20073;-71
2022/12/29 12:44:24;;;;;;;0.10;0.10;;;9.30;86.30;;;;;;5003722;28;20045;-70
2022/12/29 12:47:14;;;;;;;0.00;0.00;;;9.30;86.20;;;;;;4982125;28;20119;-70
2022/12/29 12:50:08;;;;;;;0.00;0.00;;;9.30;85.80;;;;;;5003168;28;20487;-70
2022/12/29 12:53:25;;;;;;;0.52;0.47;;;9.40;86.10;;;;;;5001065;28;20623;-68
2022/12/29 12:56:07;;;;;;;0.00;0.00;;;9.50;85.80;;;;;;4917604;29;20459;-68
2022/12/29 12:58:47;;;;;;;0.00;0.00;;;9.40;85.80;;;;;;4950682;28;20102;-68
2022/12/29 13:01:41;;;;;;;0.00;0.00;;;9.40;85.50;;;;;;4994774;28;20138;-68
2022/12/29 13:04:13;;;;;;;0.00;0.00;;;9.40;85.70;;;;;;4963490;28;20053;-68
2022/12/29 13:06:57;;;;;;;0.00;0.00;;;9.40;85.40;;;;;;5007587;28;20125;-69
2022/12/29 13:09:43;;;;;;;0.00;0.00;;;9.40;85.80;;;;;;5007574;28;20517;-70
2022/12/29 13:12:17;;;;;;;0.40;0.25;;;9.40;86.00;;;;;;4990165;28;20050;-66
2022/12/29 13:14:57;;;;;;;0.00;0.00;;;9.50;86.90;;;;;;5001278;28;20132;-69
2022/12/29 13:17:42;;;;;;;0.03;0.03;;;9.70;86.20;;;;;;5003603;28;20411;-71
2022/12/29 13:20:27;;;;;;;0.75;0.75;;;9.60;85.40;;;;;;4969253;28;20093;-73
2022/12/29 13:23:11;;;;;;;0.85;0.85;;;9.70;85.10;;;;;;5003433;28;20088;-71
2022/12/29 13:25:51;;;;;;;0.05;0.05;;;9.60;85.10;;;;;;4998065;28;20773;-72
2022/12/29 13:28:37;;;;;;;0.35;0.35;;;9.60;85.50;;;;;;5009812;28;20042;-72
2022/12/29 13:31:28;;;;;;;0.00;0.00;;;9.60;85.10;;;;;;5009409;28;20129;-70
2022/12/29 13:34:00;;;;;;;0.00;0.00;;;9.60;85.20;;;;;;5008173;28;20081;-72
2022/12/29 13:36:39;;;;;;;0.00;0.00;;;9.70;85.40;;;;;;5010141;28;20053;-70
2022/12/29 13:39:20;;;;;;;0.00;0.00;;;9.60;85.40;;;;;;5009991;28;20602;-71
2022/12/29 13:41:51;;;;;;;0.00;0.00;;;9.70;85.10;;;;;;5006827;28;21523;-72
2022/12/29 13:44:37;;;;;;;0.00;0.00;;;9.70;85.10;;;;;;5016823;28;20355;-72
2022/12/29 13:47:30;;;;;;;0.00;0.00;;;9.60;84.50;;;;;;5029901;28;20498;-71
2022/12/29 13:49:58;;;;;;;0.28;0.28;;;9.60;84.80;;;;;;4986538;28;20057;-71
2022/12/29 13:52:37;;;;;;;0.00;0.00;;;9.50;84.20;;;;;;5008302;28;20482;-72
2022/12/29 13:55:19;;;;;;;0.00;0.00;;;9.50;84.20;;;;;;5006254;28;20104;-72